createdAt,value
2023-02-15T00:02:57.511Z,2.47
2023-02-15T00:07:59.291Z,2.44
2023-02-15T00:13:01.540Z,2.41
2023-02-15T00:18:03.475Z,2.41
2023-02-15T00:23:05.381Z,2.37
2023-02-15T00:28:07.301Z,2.36
2023-02-15T00:33:10.325Z,2.33
2023-02-15T00:38:13.725Z,2.31
2023-02-15T00:43:16.646Z,2.30
2023-02-15T00:48:19.471Z,2.28
2023-02-15T00:53:22.237Z,2.26
2023-02-15T00:58:24.487Z,2.23
2023-02-15T01:03:26.398Z,2.20
2023-02-15T01:08:28.735Z,2.18
2023-02-15T01:13:30.796Z,2.16
2023-02-15T01:18:33.545Z,2.13
2023-02-15T01:23:35.494Z,2.09
2023-02-15T01:28:39.596Z,2.08
2023-02-15T01:33:41.571Z,2.05
2023-02-15T01:38:45.039Z,2.03
2023-02-15T01:43:50.279Z,2.00
2023-02-15T01:49:02.534Z,1.97
2023-02-15T01:54:22.656Z,1.93
2023-02-15T01:59:26.312Z,1.91
2023-02-15T02:04:41.281Z,1.87
2023-02-15T02:09:43.826Z,1.85
2023-02-15T02:14:48.000Z,1.85
2023-02-15T02:20:21.877Z,1.85
2023-02-15T02:25:52.211Z,1.86
2023-02-15T02:31:38.442Z,1.85
2023-02-15T02:36:59.135Z,1.82
2023-02-15T02:42:17.461Z,1.81
2023-02-15T02:47:31.042Z,1.80
2023-02-15T02:52:49.637Z,1.80
2023-02-15T02:58:15.635Z,1.77
2023-02-15T03:03:24.884Z,1.73
2023-02-15T03:08:37.142Z,1.72
2023-02-15T03:13:39.827Z,1.70
2023-02-15T03:18:59.113Z,1.67
2023-02-15T03:24:10.695Z,1.63
2023-02-15T03:29:14.354Z,1.60
2023-02-15T03:34:18.061Z,1.58
2023-02-15T03:39:27.975Z,1.57
2023-02-15T03:44:37.101Z,1.55
2023-02-15T03:49:56.661Z,1.54
2023-02-15T03:54:58.777Z,1.54
2023-02-15T04:00:20.766Z,1.53
2023-02-15T04:05:23.187Z,1.50
2023-02-15T04:10:43.462Z,1.46
2023-02-15T04:16:03.952Z,1.42
2023-02-15T04:21:24.593Z,1.38
2023-02-15T04:26:26.346Z,1.37
2023-02-15T04:31:28.206Z,1.35
2023-02-15T04:36:30.697Z,1.33
2023-02-15T04:41:33.068Z,1.34
2023-02-15T04:46:34.988Z,1.35
2023-02-15T04:51:37.207Z,1.34
2023-02-15T04:56:40.027Z,1.30
2023-02-15T05:01:42.443Z,1.24
2023-02-15T05:06:44.389Z,1.23
2023-02-15T05:11:46.565Z,1.24
2023-02-15T05:21:51.145Z,1.23
2023-02-15T05:27:14.368Z,1.19
2023-02-15T05:32:16.432Z,1.14
2023-02-15T05:37:18.302Z,1.11
2023-02-15T05:42:20.089Z,1.05
2023-02-15T05:47:21.930Z,1.02
2023-02-15T05:52:23.870Z,1.00
2023-02-15T05:57:32.271Z,0.96
2023-02-15T06:02:37.765Z,0.96
2023-02-15T06:07:39.656Z,0.98
2023-02-15T06:12:41.640Z,1.00
2023-02-15T06:17:44.372Z,1.00
2023-02-15T06:22:46.249Z,0.99
2023-02-15T06:27:48.080Z,0.95
2023-02-15T06:32:49.864Z,0.93
2023-02-15T06:37:51.701Z,0.93
2023-02-15T06:42:53.659Z,0.99
2023-02-15T06:47:55.667Z,1.03
2023-02-15T06:52:58.944Z,1.07
2023-02-15T06:58:00.824Z,1.08
2023-02-15T07:03:03.629Z,1.11
2023-02-15T07:08:05.619Z,1.16
2023-02-15T07:13:07.448Z,1.21
2023-02-15T07:18:10.602Z,1.30
2023-02-15T07:23:12.718Z,1.40
2023-02-15T07:28:14.978Z,1.48
2023-02-15T07:33:25.481Z,1.58
2023-02-15T07:38:28.670Z,1.63
2023-02-15T07:43:31.396Z,1.67
2023-02-15T07:48:34.532Z,1.71
2023-02-15T07:53:37.118Z,1.76
2023-02-15T07:58:52.086Z,1.83
2023-02-15T08:03:56.998Z,1.91
2023-02-15T08:08:59.882Z,2.01
2023-02-15T08:14:03.488Z,2.10
2023-02-15T08:19:18.656Z,2.19
2023-02-15T08:24:23.016Z,2.30
2023-02-15T08:29:27.769Z,2.37
2023-02-15T08:34:31.826Z,2.50
2023-02-15T08:39:33.599Z,2.63
2023-02-15T08:44:35.360Z,2.79
2023-02-15T08:49:37.241Z,2.90
2023-02-15T08:54:39.222Z,3.06
2023-02-15T08:59:41.152Z,3.22
2023-02-15T09:04:43.181Z,3.33
2023-02-15T09:09:46.515Z,3.41
2023-02-15T09:14:48.281Z,3.54
2023-02-15T09:19:50.666Z,3.66
2023-02-15T09:24:52.576Z,3.78
2023-02-15T09:29:54.827Z,3.90
2023-02-15T09:34:56.845Z,4.04
2023-02-15T09:39:58.892Z,4.18
2023-02-15T09:45:31.340Z,4.36
2023-02-15T09:50:42.714Z,4.54
2023-02-15T09:55:52.466Z,4.63
2023-02-15T10:01:27.058Z,4.72
2023-02-15T10:06:45.699Z,4.92
2023-02-15T10:12:10.324Z,5.10
2023-02-15T10:17:25.087Z,5.27
2023-02-15T10:22:56.304Z,5.37
2023-02-15T10:28:19.534Z,5.47
2023-02-15T10:33:27.331Z,5.57
2023-02-15T10:38:57.764Z,5.66
2023-02-15T10:44:24.139Z,5.78
2023-02-15T10:49:54.092Z,5.83
2023-02-15T10:55:13.877Z,5.93
2023-02-15T11:00:40.327Z,6.02
2023-02-15T11:06:04.035Z,6.09
2023-02-15T11:11:10.621Z,6.21
2023-02-15T11:16:29.159Z,6.27
2023-02-15T11:21:40.067Z,6.31
2023-02-15T11:27:20.317Z,6.41
2023-02-15T11:32:27.646Z,6.53
2023-02-15T11:37:44.117Z,6.59
2023-02-15T11:42:50.990Z,6.65
2023-02-15T11:47:53.809Z,6.69
2023-02-15T11:53:03.761Z,6.76
2023-02-15T11:58:24.784Z,6.86
2023-02-15T12:03:48.012Z,6.91
2023-02-15T12:08:56.947Z,6.92
2023-02-15T12:14:03.114Z,6.94
2023-02-15T12:19:04.968Z,6.97
2023-02-15T12:24:46.473Z,6.99
2023-02-15T12:29:59.874Z,7.02
2023-02-15T12:35:08.303Z,7.02
2023-02-15T12:40:31.255Z,6.99
2023-02-15T12:45:35.657Z,6.96
2023-02-15T12:50:37.690Z,6.96
2023-02-15T12:55:45.434Z,6.95
2023-02-15T13:00:48.276Z,6.93
2023-02-15T13:05:54.719Z,6.92
2023-02-15T13:11:08.376Z,6.90
2023-02-15T13:16:14.451Z,6.86
2023-02-15T13:21:27.440Z,6.76
2023-02-15T13:26:32.977Z,6.66
2023-02-15T13:31:35.376Z,6.63
2023-02-15T13:36:49.370Z,6.61
2023-02-15T13:42:17.630Z,6.62
2023-02-15T13:47:19.596Z,6.58
2023-02-15T13:52:24.781Z,6.57
2023-02-15T13:57:53.733Z,6.55
2023-02-15T14:03:10.805Z,6.50
2023-02-15T14:08:52.846Z,6.44
2023-02-15T14:14:13.357Z,6.39
2023-02-15T14:19:42.377Z,6.33
2023-02-15T14:25:13.622Z,6.27
2023-02-15T14:30:27.230Z,6.22
2023-02-15T14:35:31.404Z,6.16
2023-02-15T14:41:08.737Z,6.17
2023-02-15T14:46:33.239Z,6.15
2023-02-15T14:51:44.125Z,6.14
2023-02-15T14:56:47.471Z,6.09
2023-02-15T15:02:10.749Z,6.03
2023-02-15T15:07:51.219Z,5.97
2023-02-15T15:12:55.715Z,5.90
2023-02-15T15:18:00.696Z,5.84
2023-02-15T15:23:18.961Z,5.77
2023-02-15T15:28:36.060Z,5.67
2023-02-15T15:34:07.000Z,5.58
2023-02-15T15:39:20.607Z,5.48
2023-02-15T15:44:49.968Z,5.36
2023-02-15T15:49:57.263Z,5.28
2023-02-15T15:55:15.886Z,5.16
2023-02-15T16:00:36.537Z,5.03
2023-02-15T16:05:39.568Z,4.91
2023-02-15T16:10:42.008Z,4.82
2023-02-15T16:15:46.389Z,4.75
2023-02-15T16:21:02.480Z,4.66
2023-02-15T16:26:26.289Z,4.55
2023-02-15T16:31:28.279Z,4.46
2023-02-15T16:36:30.207Z,4.31
2023-02-15T16:41:32.308Z,4.22
2023-02-15T16:46:55.085Z,4.09
2023-02-15T16:52:08.183Z,4.02
2023-02-15T16:57:23.025Z,3.97
2023-02-15T17:02:53.152Z,3.85
2023-02-15T17:08:05.427Z,3.75
2023-02-15T17:13:18.342Z,3.65
2023-02-15T17:18:23.668Z,3.56
2023-02-15T17:23:47.665Z,3.49
2023-02-15T17:28:57.114Z,3.44
2023-02-15T17:34:00.347Z,3.43
2023-02-15T17:39:07.668Z,3.40
2023-02-15T17:44:14.869Z,3.39
2023-02-15T17:49:26.011Z,3.36
2023-02-15T17:54:46.635Z,3.34
2023-02-15T18:00:07.240Z,3.30
2023-02-15T18:05:33.047Z,3.27
2023-02-15T18:10:53.274Z,3.16
2023-02-15T18:15:56.680Z,3.08
2023-02-15T18:20:58.510Z,3.05
2023-02-15T18:26:00.320Z,3.01
2023-02-15T18:31:02.735Z,2.97
2023-02-15T18:36:07.553Z,2.89
2023-02-15T18:41:16.628Z,2.85
2023-02-15T18:46:18.618Z,2.86
2023-02-15T18:51:22.983Z,2.87
2023-02-15T18:56:24.869Z,2.85
2023-02-15T19:01:28.066Z,2.84
2023-02-15T19:06:29.985Z,2.76
2023-02-15T19:11:31.932Z,2.71
2023-02-15T19:16:35.983Z,2.68
2023-02-15T19:21:39.729Z,2.63
2023-02-15T19:26:45.532Z,2.58
2023-02-15T19:31:48.007Z,2.56
2023-02-15T19:36:53.588Z,2.56
2023-02-15T19:41:55.692Z,2.55
2023-02-15T19:46:57.683Z,2.57
2023-02-15T19:52:00.156Z,2.56
2023-02-15T19:57:02.293Z,2.55
2023-02-15T20:02:05.096Z,2.55
2023-02-15T20:07:19.689Z,2.57
2023-02-15T20:12:24.840Z,2.60
2023-02-15T20:17:26.731Z,2.57
2023-02-15T20:22:29.215Z,2.54
2023-02-15T20:27:31.262Z,2.52
2023-02-15T20:32:33.237Z,2.51
2023-02-15T20:37:35.226Z,2.51
2023-02-15T20:42:37.069Z,2.52
2023-02-15T20:47:39.080Z,2.51
2023-02-15T20:52:41.155Z,2.49
2023-02-15T20:57:43.245Z,2.49
2023-02-15T21:02:50.346Z,2.50
2023-02-15T21:07:53.582Z,2.49
2023-02-15T21:12:58.057Z,2.48
2023-02-15T21:18:06.112Z,2.48
2023-02-15T21:23:13.832Z,2.47
2023-02-15T21:28:21.825Z,2.47
2023-02-15T21:33:24.664Z,2.45
2023-02-15T21:38:31.125Z,2.45
2023-02-15T21:43:51.354Z,2.44
2023-02-15T21:48:53.190Z,2.42
2023-02-15T21:53:55.071Z,2.41
2023-02-15T21:58:56.821Z,2.39
2023-02-15T22:03:59.328Z,2.38
2023-02-15T22:09:01.178Z,2.36
2023-02-15T22:14:04.035Z,2.35
2023-02-15T22:19:05.914Z,2.33
2023-02-15T22:24:07.837Z,2.31
2023-02-15T22:29:27.830Z,2.28
2023-02-15T22:34:32.656Z,2.25
2023-02-15T22:39:34.467Z,2.24
2023-02-15T22:44:36.605Z,2.24
2023-02-15T22:49:38.362Z,2.22
2023-02-15T22:54:40.277Z,2.22
2023-02-15T22:59:42.117Z,2.22
2023-02-15T23:04:43.979Z,2.23
2023-02-15T23:09:46.376Z,2.21
2023-02-15T23:14:48.390Z,2.20
2023-02-15T23:19:50.507Z,2.20
2023-02-15T23:24:53.208Z,2.15
2023-02-15T23:29:55.065Z,2.13
2023-02-15T23:34:57.013Z,2.10
2023-02-15T23:40:17.508Z,2.09
2023-02-15T23:45:23.501Z,2.07
2023-02-15T23:50:28.196Z,2.04
2023-02-15T23:55:38.834Z,2.01
